Time;durP1;ratioP1;P1;durP2;ratioP2;P2;SDS_P1;SDS_P2;PMS_P1;PMS_P2;Temp;Humidity;BMP_temperature;BMP_pressure;BME280_temperature;BME280_humidity;BME280_pressure;Samples;Min_cycle;Max_cycle;Signal;HPM_P1;HPM_P2
2023/01/06 00:01:10;;;;;;;11.03;5.27;;;;;;;;;;5075238;28;20240;-70
2023/01/06 00:03:36;;;;;;;8.20;4.67;;;;;;;;;;5075579;28;20257;-70
2023/01/06 00:06:04;;;;;;;22.90;11.97;;;;;;;;;;5074957;28;20175;-70
2023/01/06 00:08:30;;;;;;;10.93;4.43;;;;;;;;;;5075460;28;20287;-70
2023/01/06 00:10:56;;;;;;;9.10;4.50;;;;;;;;;;5075822;28;20718;-70
2023/01/06 00:13:22;;;;;;;7.67;4.07;;;;;;;;;;5075496;28;20178;-69
2023/01/06 00:15:48;;;;;;;9.00;3.80;;;;;;;;;;5060196;28;20231;-70
2023/01/06 00:18:14;;;;;;;6.40;4.23;;;;;;;;;;5081854;28;20548;-69
2023/01/06 00:20:40;;;;;;;8.33;4.30;;;;;;;;;;5083436;28;20198;-69
2023/01/06 00:23:06;;;;;;;7.77;4.43;;;;;;;;;;5085261;28;20189;-69
2023/01/06 00:25:32;;;;;;;10.40;3.93;;;;;;;;;;5076829;28;20213;-69
2023/01/06 00:27:58;;;;;;;9.03;4.40;;;;;;;;;;5074926;28;20177;-69
2023/01/06 00:30:24;;;;;;;5.97;3.67;;;;;;;;;;5074830;28;20182;-70
2023/01/06 00:32:50;;;;;;;8.20;3.90;;;;;;;;;;5074935;28;20182;-70
2023/01/06 00:35:16;;;;;;;8.53;3.80;;;;;;;;;;5056828;28;20296;-70
2023/01/06 00:37:42;;;;;;;6.87;3.70;;;;;;;;;;5075149;28;20266;-70
2023/01/06 00:40:08;;;;;;;6.33;3.50;;;;;;;;;;5074724;28;20205;-70
2023/01/06 00:42:34;;;;;;;8.57;3.47;;;;;;;;;;5074613;28;20201;-71
2023/01/06 00:45:00;;;;;;;7.87;3.27;;;;;;;;;;5056587;28;20205;-70
2023/01/06 00:47:26;;;;;;;5.20;3.00;;;;;;;;;;5074456;28;20188;-72
2023/01/06 00:49:52;;;;;;;11.87;3.70;;;;;;;;;;5074675;28;20178;-70
2023/01/06 00:52:18;;;;;;;8.37;3.67;;;;;;;;;;5074517;28;20189;-70
2023/01/06 00:54:44;;;;;;;10.90;4.10;;;;;;;;;;5056318;28;20202;-70
2023/01/06 00:57:10;;;;;;;9.50;4.43;;;;;;;;;;5074417;28;20181;-70
2023/01/06 00:59:36;;;;;;;12.93;4.30;;;;;;;;;;5074185;28;20181;-70
2023/01/06 01:02:02;;;;;;;9.30;4.47;;;;;;;;;;5074151;28;20543;-70
2023/01/06 01:04:28;;;;;;;9.50;4.33;;;;;;;;;;5056179;28;20197;-69
2023/01/06 01:06:54;;;;;;;5.13;3.73;;;;;;;;;;5074178;28;20182;-70
2023/01/06 01:09:22;;;;;;;7.27;3.23;;;;;;;;;;5074269;28;20646;-70
2023/01/06 01:14:33;;;;;;;7.37;3.37;;;;;;;;;;5074239;28;20235;-70
2023/01/06 01:16:59;;;;;;;7.07;2.87;;;;;;;;;;5055260;28;20630;-70
2023/01/06 01:19:25;;;;;;;9.07;4.00;;;;;;;;;;5056021;28;20178;-70
2023/01/06 01:21:51;;;;;;;6.57;3.30;;;;;;;;;;5073926;28;20677;-70
2023/01/06 01:24:17;;;;;;;5.23;3.17;;;;;;;;;;5056012;28;20251;-70
2023/01/06 01:26:44;;;;;;;7.60;3.60;;;;;;;;;;5073885;28;20181;-70
2023/01/06 01:29:11;;;;;;;4.63;3.10;;;;;;;;;;5073950;28;20539;-69
2023/01/06 01:31:37;;;;;;;6.87;3.17;;;;;;;;;;5073660;28;20189;-70
2023/01/06 01:34:03;;;;;;;7.63;3.40;;;;;;;;;;5074055;28;20552;-69
2023/01/06 01:36:29;;;;;;;7.87;2.70;;;;;;;;;;5073555;28;20652;-68
2023/01/06 01:38:56;;;;;;;6.70;2.60;;;;;;;;;;5055749;28;20186;-71
2023/01/06 01:41:22;;;;;;;4.33;2.70;;;;;;;;;;5073435;28;20554;-70
2023/01/06 01:43:56;;;;;;;5.67;2.73;;;;;;;;;;5073437;28;20176;-69
2023/01/06 01:46:22;;;;;;;5.17;2.73;;;;;;;;;;5055394;28;20656;-69
2023/01/06 01:48:48;;;;;;;5.87;2.60;;;;;;;;;;5073588;28;20256;-69
2023/01/06 01:51:16;;;;;;;9.40;3.00;;;;;;;;;;5073662;28;20182;-69
2023/01/06 01:53:44;;;;;;;7.90;3.53;;;;;;;;;;5073467;28;20196;-69
2023/01/06 01:56:11;;;;;;;7.13;3.13;;;;;;;;;;5073410;28;20191;-69
2023/01/06 01:58:50;;;;;;;4.47;2.90;;;;;;;;;;5073663;28;20181;-69
2023/01/06 02:01:16;;;;;;;7.37;3.10;;;;;;;;;;5073190;28;20219;-70
2023/01/06 02:03:42;;;;;;;5.60;2.57;;;;;;;;;;5055369;28;20173;-70
2023/01/06 02:06:16;;;;;;;6.47;2.50;;;;;;;;;;5073275;28;20178;-67
2023/01/06 02:08:45;;;;;;;5.90;2.30;;;;;;;;;;5055166;28;20173;-69
2023/01/06 02:11:11;;;;;;;3.60;2.50;;;;;;;;;;5073221;28;20230;-69
2023/01/06 02:13:39;;;;;;;6.00;2.53;;;;;;;;;;5073188;28;20177;-69
2023/01/06 02:16:15;;;;;;;7.97;2.37;;;;;;;;;;5073273;28;20178;-70
2023/01/06 02:18:50;;;;;;;4.40;2.40;;;;;;;;;;5055097;28;20227;-70
2023/01/06 02:21:26;;;;;;;5.77;3.20;;;;;;;;;;5055013;28;20254;-70
2023/01/06 02:23:56;;;;;;;5.30;2.37;;;;;;;;;;5073365;28;20158;-69
2023/01/06 02:26:33;;;;;;;5.60;2.30;;;;;;;;;;5073428;28;20158;-70
2023/01/06 02:29:12;;;;;;;6.13;3.00;;;;;;;;;;5056470;28;20637;-69
2023/01/06 02:31:56;;;;;;;7.23;3.10;;;;;;;;;;5077435;28;20165;-70
2023/01/06 02:34:25;;;;;;;6.57;2.37;;;;;;;;;;5077152;28;20204;-70
2023/01/06 02:37:04;;;;;;;5.00;2.47;;;;;;;;;;5076821;28;20178;-70
2023/01/06 02:39:38;;;;;;;3.20;2.07;;;;;;;;;;5077537;28;20162;-69
2023/01/06 02:42:12;;;;;;;6.20;2.57;;;;;;;;;;5076930;28;20185;-70
2023/01/06 02:45:02;;;;;;;6.17;2.40;;;;;;;;;;5076798;28;20698;-70
2023/01/06 02:47:34;;;;;;;6.53;2.77;;;;;;;;;;5039269;28;20212;-70
2023/01/06 02:50:02;;;;;;;6.20;2.23;;;;;;;;;;5076736;28;20178;-70
2023/01/06 02:52:47;;;;;;;2.93;2.30;;;;;;;;;;5077001;28;20178;-68
2023/01/06 02:55:19;;;;;;;7.97;3.00;;;;;;;;;;5076619;28;20556;-70
2023/01/06 02:57:49;;;;;;;7.70;3.40;;;;;;;;;;5058652;28;20186;-70
2023/01/06 03:00:21;;;;;;;11.07;2.77;;;;;;;;;;5076553;28;20276;-70
2023/01/06 03:02:50;;;;;;;10.40;2.70;;;;;;;;;;5058681;28;20232;-70
2023/01/06 03:05:16;;;;;;;5.57;2.37;;;;;;;;;;5076582;28;20201;-70
2023/01/06 03:07:44;;;;;;;6.73;2.00;;;;;;;;;;5076519;28;20636;-69
2023/01/06 03:10:11;;;;;;;6.93;2.80;;;;;;;;;;5076661;28;20262;-69
2023/01/06 03:12:55;;;;;;;5.63;2.20;;;;;;;;;;5076308;28;20177;-70
2023/01/06 03:15:23;;;;;;;5.83;2.10;;;;;;;;;;5076032;28;20202;-69
2023/01/06 03:17:49;;;;;;;10.10;2.60;;;;;;;;;;5058481;28;20178;-70
2023/01/06 03:20:15;;;;;;;5.00;2.27;;;;;;;;;;5076379;28;20197;-69
2023/01/06 03:22:41;;;;;;;3.63;2.30;;;;;;;;;;5076442;28;20260;-69
2023/01/06 03:25:08;;;;;;;7.30;2.37;;;;;;;;;;5075762;28;20221;-71
2023/01/06 03:27:34;;;;;;;3.73;2.20;;;;;;;;;;5076357;28;20174;-69
2023/01/06 03:30:00;;;;;;;5.23;2.10;;;;;;;;;;5076034;28;20185;-69
2023/01/06 03:32:36;;;;;;;6.60;2.27;;;;;;;;;;5076305;28;20178;-70
2023/01/06 03:35:14;;;;;;;3.70;2.10;;;;;;;;;;5057963;28;20201;-68
2023/01/06 03:37:52;;;;;;;7.13;2.80;;;;;;;;;;5058044;28;20209;-69
2023/01/06 03:40:27;;;;;;;7.07;2.47;;;;;;;;;;5074951;28;20558;-70
2023/01/06 03:43:11;;;;;;;4.10;2.20;;;;;;;;;;5075628;28;20173;-70
2023/01/06 03:45:56;;;;;;;4.90;2.07;;;;;;;;;;5058031;28;20243;-70
2023/01/06 03:48:25;;;;;;;10.07;2.53;;;;;;;;;;5057875;28;20184;-69
2023/01/06 03:51:01;;;;;;;7.20;2.20;;;;;;;;;;5076181;28;20205;-69
2023/01/06 03:53:30;;;;;;;4.80;1.90;;;;;;;;;;5076146;28;20181;-69
2023/01/06 03:56:05;;;;;;;5.17;2.27;;;;;;;;;;5075839;28;20202;-69
2023/01/06 03:58:32;;;;;;;5.27;2.43;;;;;;;;;;5057940;28;20181;-70
2023/01/06 04:00:58;;;;;;;5.47;2.27;;;;;;;;;;5076136;28;20205;-70
2023/01/06 04:03:25;;;;;;;6.13;1.90;;;;;;;;;;5058195;28;20545;-70
2023/01/06 04:05:51;;;;;;;8.10;1.80;;;;;;;;;;5058239;28;20193;-70
2023/01/06 04:08:17;;;;;;;3.87;2.00;;;;;;;;;;5058084;28;20182;-70
2023/01/06 04:10:43;;;;;;;3.27;1.83;;;;;;;;;;5076615;28;20189;-69
2023/01/06 04:13:09;;;;;;;3.53;1.97;;;;;;;;;;5076023;28;20177;-69
2023/01/06 04:15:35;;;;;;;5.63;1.80;;;;;;;;;;5075864;28;20699;-70
2023/01/06 04:18:01;;;;;;;5.13;2.10;;;;;;;;;;5075459;28;20216;-70
2023/01/06 04:20:29;;;;;;;4.33;1.73;;;;;;;;;;5075659;28;20232;-70
2023/01/06 04:22:56;;;;;;;7.40;1.70;;;;;;;;;;5076514;28;20253;-70
2023/01/06 04:25:22;;;;;;;6.47;1.90;;;;;;;;;;5075930;28;20292;-69
2023/01/06 04:27:49;;;;;;;6.03;2.13;;;;;;;;;;5076502;28;20189;-69
2023/01/06 04:30:15;;;;;;;3.03;1.70;;;;;;;;;;5058276;28;20177;-70
2023/01/06 04:32:41;;;;;;;8.40;1.77;;;;;;;;;;5076781;28;20282;-71
2023/01/06 04:35:07;;;;;;;6.60;1.97;;;;;;;;;;5076726;28;20554;-70
2023/01/06 04:37:34;;;;;;;4.93;2.10;;;;;;;;;;5058894;28;20192;-70
2023/01/06 04:40:00;;;;;;;3.63;1.83;;;;;;;;;;5058637;28;20197;-70
2023/01/06 04:42:26;;;;;;;4.80;2.00;;;;;;;;;;5077062;28;20207;-69
2023/01/06 04:44:52;;;;;;;6.33;1.97;;;;;;;;;;5076627;28;20243;-68
2023/01/06 04:47:18;;;;;;;6.20;2.33;;;;;;;;;;5058335;28;20173;-70
2023/01/06 04:49:44;;;;;;;6.20;2.30;;;;;;;;;;5075822;28;20582;-70
2023/01/06 04:52:10;;;;;;;2.40;1.70;;;;;;;;;;5059093;28;20591;-69
2023/01/06 04:54:36;;;;;;;6.30;2.13;;;;;;;;;;5076276;28;20236;-71
2023/01/06 04:57:02;;;;;;;4.37;1.83;;;;;;;;;;5076419;28;20227;-70
2023/01/06 04:59:28;;;;;;;3.60;1.70;;;;;;;;;;5076999;28;20170;-70
2023/01/06 05:01:54;;;;;;;5.60;2.20;;;;;;;;;;5075479;28;20731;-70
2023/01/06 05:04:20;;;;;;;3.13;1.60;;;;;;;;;;5057741;28;20194;-70
2023/01/06 05:06:46;;;;;;;2.30;1.83;;;;;;;;;;5076005;28;20177;-70
2023/01/06 05:09:12;;;;;;;3.67;1.77;;;;;;;;;;5076188;28;20173;-69
2023/01/06 05:11:38;;;;;;;3.43;1.60;;;;;;;;;;5075832;28;20223;-69
2023/01/06 05:14:04;;;;;;;5.17;2.17;;;;;;;;;;5075596;28;20202;-70
2023/01/06 05:16:31;;;;;;;4.23;1.67;;;;;;;;;;5137666;22;20236;-73
2023/01/06 05:18:57;;;;;;;7.37;2.30;;;;;;;;;;5112029;28;20169;-73
2023/01/06 05:21:24;;;;;;;2.67;1.40;;;;;;;;;;5112013;28;20212;-73
2023/01/06 05:23:51;;;;;;;3.97;1.73;;;;;;;;;;5110951;28;20180;-73
2023/01/06 05:26:18;;;;;;;6.60;2.10;;;;;;;;;;5112181;28;20183;-73
2023/01/06 05:28:44;;;;;;;4.10;1.70;;;;;;;;;;5113508;28;20177;-74
2023/01/06 05:31:10;;;;;;;4.17;2.17;;;;;;;;;;5100685;28;20276;-74
2023/01/06 05:33:37;;;;;;;2.87;1.50;;;;;;;;;;5078305;28;20250;-73
2023/01/06 05:36:04;;;;;;;2.13;1.50;;;;;;;;;;5077788;28;20201;-73
2023/01/06 05:38:31;;;;;;;3.03;1.63;;;;;;;;;;5096081;28;20173;-73
2023/01/06 05:40:57;;;;;;;3.83;1.60;;;;;;;;;;5096194;28;20677;-73
2023/01/06 05:43:23;;;;;;;5.30;1.80;;;;;;;;;;5078411;28;20207;-73
2023/01/06 05:45:49;;;;;;;6.17;1.67;;;;;;;;;;5077533;28;20193;-73
2023/01/06 05:48:15;;;;;;;3.17;1.50;;;;;;;;;;5096436;28;20203;-73
2023/01/06 05:50:42;;;;;;;5.67;1.87;;;;;;;;;;5095801;28;20178;-74
2023/01/06 05:53:08;;;;;;;4.10;1.70;;;;;;;;;;5095738;28;20185;-75
2023/01/06 05:55:34;;;;;;;5.90;1.70;;;;;;;;;;5095554;28;20250;-74
2023/01/06 05:58:00;;;;;;;3.67;2.00;;;;;;;;;;5077548;28;20242;-73
2023/01/06 06:00:26;;;;;;;3.87;2.00;;;;;;;;;;5095438;28;20611;-73
2023/01/06 06:02:52;;;;;;;4.80;2.33;;;;;;;;;;5076958;28;20173;-74
2023/01/06 06:05:18;;;;;;;2.37;1.53;;;;;;;;;;5095264;28;20229;-73
2023/01/06 06:07:44;;;;;;;4.37;1.70;;;;;;;;;;5095655;28;20215;-73
2023/01/06 06:10:10;;;;;;;4.80;2.07;;;;;;;;;;5078798;28;20244;-73
2023/01/06 06:12:36;;;;;;;2.27;1.67;;;;;;;;;;5097439;28;20195;-75
2023/01/06 06:15:02;;;;;;;2.30;1.70;;;;;;;;;;5095897;28;20173;-73
2023/01/06 06:17:28;;;;;;;8.37;1.83;;;;;;;;;;5078068;28;20227;-73
2023/01/06 06:19:54;;;;;;;3.40;2.00;;;;;;;;;;5096416;28;20555;-74
2023/01/06 06:22:20;;;;;;;5.00;1.83;;;;;;;;;;5078581;28;20264;-73
2023/01/06 06:24:46;;;;;;;2.83;1.90;;;;;;;;;;5088728;28;20161;-74
2023/01/06 06:27:12;;;;;;;4.53;1.83;;;;;;;;;;5112884;28;20223;-73
2023/01/06 06:29:38;;;;;;;4.57;1.73;;;;;;;;;;5091323;28;20185;-73
2023/01/06 06:32:04;;;;;;;5.03;1.83;;;;;;;;;;5081941;28;20185;-73
2023/01/06 06:34:30;;;;;;;5.03;2.00;;;;;;;;;;5077268;28;20219;-73
2023/01/06 06:36:56;;;;;;;3.43;1.80;;;;;;;;;;5094888;28;20197;-74
2023/01/06 06:39:21;;;;;;;3.50;2.07;;;;;;;;;;5077074;28;20188;-73
2023/01/06 06:41:47;;;;;;;3.57;2.10;;;;;;;;;;5095012;28;20189;-73
2023/01/06 06:44:13;;;;;;;3.40;1.87;;;;;;;;;;5077422;28;20343;-74
2023/01/06 06:46:39;;;;;;;3.33;1.80;;;;;;;;;;5077401;28;20204;-73
2023/01/06 06:49:05;;;;;;;2.80;1.70;;;;;;;;;;5076941;28;20188;-73
2023/01/06 06:51:31;;;;;;;3.70;1.73;;;;;;;;;;5076874;28;20200;-73
2023/01/06 06:53:57;;;;;;;4.57;1.90;;;;;;;;;;5095330;28;20218;-73
2023/01/06 06:56:23;;;;;;;1.93;1.60;;;;;;;;;;5077044;28;20254;-73
2023/01/06 06:58:49;;;;;;;1.77;1.67;;;;;;;;;;5095710;28;20209;-73
2023/01/06 07:01:16;;;;;;;3.70;1.80;;;;;;;;;;5095275;28;20259;-73
2023/01/06 07:03:42;;;;;;;4.30;2.17;;;;;;;;;;5095316;28;20169;-73
2023/01/06 07:06:10;;;;;;;5.33;2.00;;;;;;;;;;5077012;28;20294;-73
2023/01/06 07:08:36;;;;;;;1.70;1.60;;;;;;;;;;5060566;28;20330;-73
2023/01/06 07:11:02;;;;;;;2.17;1.40;;;;;;;;;;5095624;28;20181;-73
2023/01/06 07:13:28;;;;;;;2.30;1.90;;;;;;;;;;5095122;28;20228;-73
2023/01/06 07:15:54;;;;;;;4.53;1.90;;;;;;;;;;5078170;28;20220;-73
2023/01/06 07:18:20;;;;;;;3.53;1.77;;;;;;;;;;5081363;28;20183;-73
2023/01/06 07:20:48;;;;;;;4.73;1.77;;;;;;;;;;5080751;28;20208;-73
2023/01/06 07:23:14;;;;;;;4.43;2.00;;;;;;;;;;5081201;28;20226;-74
2023/01/06 07:25:40;;;;;;;3.27;1.70;;;;;;;;;;5080799;28;20265;-73
2023/01/06 07:28:08;;;;;;;2.60;1.50;;;;;;;;;;5081299;28;20302;-72
2023/01/06 07:30:34;;;;;;;3.87;1.80;;;;;;;;;;5098597;28;20234;-73
2023/01/06 07:33:00;;;;;;;4.73;1.80;;;;;;;;;;5080263;28;20177;-73
2023/01/06 07:35:26;;;;;;;2.23;1.70;;;;;;;;;;5080357;28;20296;-74
2023/01/06 07:37:52;;;;;;;4.60;1.63;;;;;;;;;;5080729;28;20181;-72
2023/01/06 07:40:18;;;;;;;4.80;1.60;;;;;;;;;;5098771;28;20193;-73
2023/01/06 07:42:44;;;;;;;2.60;1.70;;;;;;;;;;5082398;28;20226;-73
2023/01/06 07:45:10;;;;;;;4.73;1.60;;;;;;;;;;5079503;28;20173;-73
2023/01/06 07:47:36;;;;;;;2.17;1.57;;;;;;;;;;5098060;28;20177;-74
2023/01/06 07:50:03;;;;;;;3.50;1.73;;;;;;;;;;5098832;28;20169;-72
2023/01/06 07:52:29;;;;;;;6.40;2.03;;;;;;;;;;5098860;28;20227;-73
2023/01/06 07:54:58;;;;;;;3.97;1.77;;;;;;;;;;5097453;28;20169;-73
2023/01/06 07:57:24;;;;;;;4.20;1.60;;;;;;;;;;5098059;28;20188;-74
2023/01/06 07:59:50;;;;;;;3.70;1.60;;;;;;;;;;5098043;28;20259;-74
2023/01/06 08:02:16;;;;;;;2.93;1.83;;;;;;;;;;5098040;28;20252;-73
2023/01/06 08:04:42;;;;;;;2.63;1.50;;;;;;;;;;5080240;28;20173;-73
2023/01/06 08:07:08;;;;;;;2.77;1.83;;;;;;;;;;5097428;28;20238;-74
2023/01/06 08:09:34;;;;;;;2.20;1.60;;;;;;;;;;5079608;28;20204;-73
2023/01/06 08:12:00;;;;;;;1.60;1.50;;;;;;;;;;5097860;28;20185;-73
2023/01/06 08:14:26;;;;;;;3.97;1.80;;;;;;;;;;5098001;28;20260;-73
2023/01/06 08:16:52;;;;;;;1.90;1.50;;;;;;;;;;5098080;28;20204;-74
2023/01/06 08:19:18;;;;;;;3.30;1.57;;;;;;;;;;5079639;28;20193;-73
2023/01/06 08:21:44;;;;;;;3.17;1.70;;;;;;;;;;5098356;28;20702;-72
2023/01/06 08:24:10;;;;;;;2.50;1.60;;;;;;;;;;5079507;28;20181;-73
2023/01/06 08:26:36;;;;;;;2.23;1.50;;;;;;;;;;5078996;28;20226;-74
2023/01/06 08:29:02;;;;;;;4.30;1.80;;;;;;;;;;5098063;28;20173;-73
2023/01/06 08:31:28;;;;;;;2.17;1.50;;;;;;;;;;5098077;28;20202;-73
2023/01/06 08:33:54;;;;;;;3.63;1.87;;;;;;;;;;5079038;28;20280;-73
2023/01/06 08:36:21;;;;;;;1.83;1.60;;;;;;;;;;5097582;28;20193;-74
2023/01/06 08:38:48;;;;;;;2.27;1.60;;;;;;;;;;5097493;28;20188;-73
2023/01/06 08:41:14;;;;;;;2.43;2.20;;;;;;;;;;5096847;28;20205;-74
2023/01/06 08:43:41;;;;;;;2.47;2.00;;;;;;;;;;5101521;28;20173;-74
2023/01/06 08:46:08;;;;;;;3.30;1.90;;;;;;;;;;5095372;28;20200;-74
2023/01/06 08:48:34;;;;;;;2.90;1.90;;;;;;;;;;5093596;28;20610;-73
2023/01/06 08:51:04;;;;;;;3.10;1.80;;;;;;;;;;5088540;28;20192;-73
2023/01/06 08:53:30;;;;;;;2.67;2.10;;;;;;;;;;5079919;28;20199;-73
2023/01/06 08:55:56;;;;;;;2.37;1.70;;;;;;;;;;5097788;28;20276;-73
2023/01/06 08:58:22;;;;;;;3.33;2.10;;;;;;;;;;5097366;28;20659;-73
2023/01/06 09:00:48;;;;;;;1.77;1.67;;;;;;;;;;5078724;28;20571;-73
2023/01/06 09:03:14;;;;;;;2.07;1.70;;;;;;;;;;5097348;28;20576;-73
2023/01/06 09:05:40;;;;;;;3.37;2.07;;;;;;;;;;5097627;28;20189;-74
2023/01/06 09:08:06;;;;;;;1.70;1.60;;;;;;;;;;5097318;28;20177;-73
2023/01/06 09:10:32;;;;;;;3.53;2.90;;;;;;;;;;5079245;28;20269;-73
2023/01/06 09:12:58;;;;;;;2.93;2.37;;;;;;;;;;5096743;28;20272;-73
2023/01/06 09:15:24;;;;;;;3.50;2.73;;;;;;;;;;5096759;28;20213;-73
2023/01/06 09:17:50;;;;;;;2.23;2.00;;;;;;;;;;5097241;28;20169;-74
2023/01/06 09:20:16;;;;;;;2.20;2.00;;;;;;;;;;5097614;28;20204;-73
2023/01/06 09:22:42;;;;;;;4.83;2.03;;;;;;;;;;5078926;28;20180;-74
2023/01/06 09:25:08;;;;;;;2.20;2.00;;;;;;;;;;5097627;28;20176;-73
2023/01/06 09:27:34;;;;;;;3.57;2.10;;;;;;;;;;5098099;28;20183;-73
2023/01/06 09:30:00;;;;;;;4.43;1.90;;;;;;;;;;5078131;28;20560;-74
2023/01/06 09:32:26;;;;;;;2.83;1.90;;;;;;;;;;5076791;28;20567;-73
2023/01/06 09:34:52;;;;;;;3.87;2.03;;;;;;;;;;5094996;28;20246;-74
2023/01/06 09:37:18;;;;;;;2.93;2.43;;;;;;;;;;5094592;28;20227;-74
2023/01/06 09:39:43;;;;;;;4.40;2.37;;;;;;;;;;5075751;28;20346;-74
2023/01/06 09:42:17;;;;;;;6.57;3.90;;;;;;;;;;5076612;28;20236;-74
2023/01/06 09:44:48;;;;;;;4.80;3.73;;;;;;;;;;5094303;28;20184;-74
2023/01/06 09:47:16;;;;;;;5.10;3.57;;;;;;;;;;5076542;28;20208;-74
2023/01/06 09:49:44;;;;;;;8.63;3.70;;;;;;;;;;5094377;28;20199;-74
2023/01/06 09:52:17;;;;;;;5.20;4.33;;;;;;;;;;5094219;28;20177;-73
2023/01/06 09:54:48;;;;;;;4.73;3.60;;;;;;;;;;5076259;28;20181;-73
2023/01/06 09:57:16;;;;;;;7.37;3.97;;;;;;;;;;5094326;28;20197;-74
2023/01/06 09:59:48;;;;;;;3.63;2.70;;;;;;;;;;5094296;28;20527;-73
2023/01/06 10:02:20;;;;;;;3.67;2.93;;;;;;;;;;5075885;28;20258;-74
2023/01/06 10:04:46;;;;;;;3.77;3.30;;;;;;;;;;5076448;28;20256;-74
2023/01/06 10:07:21;;;;;;;3.27;2.80;;;;;;;;;;5094484;28;20707;-75
2023/01/06 10:10:05;;;;;;;3.50;2.77;;;;;;;;;;5094991;28;20165;-75
2023/01/06 10:12:41;;;;;;;2.90;2.70;;;;;;;;;;5077445;28;20184;-74
2023/01/06 10:15:25;;;;;;;4.63;2.90;;;;;;;;;;5077445;28;20169;-74
2023/01/06 10:18:10;;;;;;;3.00;2.70;;;;;;;;;;5094932;28;20226;-74
2023/01/06 10:21:02;;;;;;;2.87;2.60;;;;;;;;;;5075814;28;20201;-74
2023/01/06 10:23:42;;;;;;;4.10;3.40;;;;;;;;;;5091187;28;20189;-74
2023/01/06 10:26:12;;;;;;;3.37;3.07;;;;;;;;;;5076572;28;20192;-74
2023/01/06 10:28:41;;;;;;;3.93;3.20;;;;;;;;;;5093883;28;20177;-74
2023/01/06 10:31:10;;;;;;;2.90;2.60;;;;;;;;;;5094342;28;20232;-73
2023/01/06 10:33:40;;;;;;;3.60;2.53;;;;;;;;;;5075839;28;20181;-74
2023/01/06 10:36:11;;;;;;;5.17;4.70;;;;;;;;;;5094842;28;20292;-73
2023/01/06 10:38:39;;;;;;;4.67;4.27;;;;;;;;;;5075437;28;20184;-73
2023/01/06 10:41:15;;;;;;;11.27;9.03;;;;;;;;;;5075594;28;20204;-74
2023/01/06 10:43:41;;;;;;;3.00;2.20;;;;;;;;;;5093427;28;20211;-73
2023/01/06 10:46:07;;;;;;;2.97;2.43;;;;;;;;;;5093681;28;20193;-73
2023/01/06 10:48:33;;;;;;;2.20;2.00;;;;;;;;;;5093837;28;20180;-73
2023/01/06 10:51:06;;;;;;;3.73;3.43;;;;;;;;;;5078573;28;20641;-74
2023/01/06 10:53:32;;;;;;;2.43;2.13;;;;;;;;;;5079304;28;20656;-74
2023/01/06 10:55:59;;;;;;;3.43;3.13;;;;;;;;;;5097459;28;20197;-73
2023/01/06 10:58:31;;;;;;;2.80;2.30;;;;;;;;;;5097478;28;20183;-74
2023/01/06 11:01:05;;;;;;;2.40;2.20;;;;;;;;;;5097237;28;20275;-73
2023/01/06 11:03:31;;;;;;;2.47;2.27;;;;;;;;;;5112664;28;20161;-74
2023/01/06 11:06:08;;;;;;;3.17;2.70;;;;;;;;;;5114270;28;20253;-74
2023/01/06 11:08:34;;;;;;;2.67;2.00;;;;;;;;;;5112187;28;20173;-75
2023/01/06 11:11:00;;;;;;;2.20;2.10;;;;;;;;;;5081490;28;20188;-74
2023/01/06 11:13:31;;;;;;;2.53;2.10;;;;;;;;;;5097605;28;20181;-74
2023/01/06 11:15:59;;;;;;;2.43;2.23;;;;;;;;;;5097254;28;20212;-74
2023/01/06 11:18:25;;;;;;;2.80;1.73;;;;;;;;;;5097147;28;20286;-74
2023/01/06 11:21:00;;;;;;;2.40;2.17;;;;;;;;;;5097208;28;20687;-74
2023/01/06 11:23:28;;;;;;;2.33;2.00;;;;;;;;;;5097533;28;20161;-75
2023/01/06 11:26:12;;;;;;;2.50;1.90;;;;;;;;;;5079231;28;20197;-74
2023/01/06 11:28:42;;;;;;;2.10;1.83;;;;;;;;;;5098562;28;20173;-74
2023/01/06 11:31:11;;;;;;;5.73;2.23;;;;;;;;;;5098749;28;20177;-75
2023/01/06 11:33:46;;;;;;;2.20;2.00;;;;;;;;;;5115663;28;20197;-75
2023/01/06 11:36:13;;;;;;;2.37;1.90;;;;;;;;;;5097808;28;20197;-74
2023/01/06 11:39:02;;;;;;;3.37;2.20;;;;;;;;;;5097234;28;20548;-73
2023/01/06 11:41:39;;;;;;;2.40;2.17;;;;;;;;;;5068430;28;20224;-74
2023/01/06 11:44:05;;;;;;;3.10;2.17;;;;;;;;;;5096895;28;20184;-74
2023/01/06 11:46:31;;;;;;;3.63;2.07;;;;;;;;;;5078464;28;20197;-74
2023/01/06 11:49:00;;;;;;;2.70;2.03;;;;;;;;;;5078479;28;20177;-74
2023/01/06 11:51:41;;;;;;;3.83;2.40;;;;;;;;;;5078571;28;20185;-74
2023/01/06 11:54:19;;;;;;;2.50;1.90;;;;;;;;;;5096546;28;20177;-73
2023/01/06 11:56:56;;;;;;;3.03;2.10;;;;;;;;;;5078311;28;20208;-74
2023/01/06 11:59:23;;;;;;;4.03;2.23;;;;;;;;;;5096812;28;20528;-74
2023/01/06 12:01:56;;;;;;;2.80;2.10;;;;;;;;;;5095885;28;20254;-74
2023/01/06 12:04:24;;;;;;;2.83;2.13;;;;;;;;;;5096206;28;20177;-73
2023/01/06 12:06:51;;;;;;;4.50;2.70;;;;;;;;;;5096076;28;20200;-74
2023/01/06 12:09:23;;;;;;;4.93;2.40;;;;;;;;;;5096532;28;20648;-74
2023/01/06 12:11:50;;;;;;;2.90;2.20;;;;;;;;;;5077945;28;20179;-74
2023/01/06 12:14:17;;;;;;;2.23;2.03;;;;;;;;;;5078125;28;20181;-74
2023/01/06 12:17:03;;;;;;;3.17;2.17;;;;;;;;;;5077743;28;20299;-73
2023/01/06 12:19:36;;;;;;;3.50;2.20;;;;;;;;;;5078167;28;20177;-73
2023/01/06 12:22:02;;;;;;;3.87;2.83;;;;;;;;;;5096780;28;20560;-74
2023/01/06 12:24:32;;;;;;;2.97;2.40;;;;;;;;;;5096504;28;20177;-74
2023/01/06 12:26:58;;;;;;;1.90;1.80;;;;;;;;;;5096206;28;20219;-73
2023/01/06 12:29:24;;;;;;;4.10;1.63;;;;;;;;;;5095771;28;20177;-74
2023/01/06 12:32:14;;;;;;;2.80;1.47;;;;;;;;;;5096126;28;20177;-74
2023/01/06 12:34:44;;;;;;;3.27;1.80;;;;;;;;;;5085867;28;20193;-74
2023/01/06 12:37:25;;;;;;;3.93;1.60;;;;;;;;;;5095862;28;20685;-72
2023/01/06 12:40:00;;;;;;;2.77;2.20;;;;;;;;;;5095893;28;20177;-75
2023/01/06 12:42:38;;;;;;;4.17;2.30;;;;;;;;;;5077783;28;20234;-74
2023/01/06 12:45:16;;;;;;;2.27;1.80;;;;;;;;;;5095371;28;20252;-74
2023/01/06 12:47:48;;;;;;;2.43;1.80;;;;;;;;;;5077344;28;20165;-74
2023/01/06 12:50:14;;;;;;;4.13;3.10;;;;;;;;;;5077325;28;20177;-73
2023/01/06 12:52:42;;;;;;;3.73;1.83;;;;;;;;;;5095434;28;20169;-73
2023/01/06 12:55:12;;;;;;;5.33;4.23;;;;;;;;;;5095829;28;20633;-74
2023/01/06 12:57:47;;;;;;;3.83;2.20;;;;;;;;;;5077878;28;20649;-74
2023/01/06 13:00:13;;;;;;;2.10;1.90;;;;;;;;;;5096440;28;20191;-74
2023/01/06 13:02:45;;;;;;;1.97;1.70;;;;;;;;;;5096019;28;20165;-74
2023/01/06 13:05:27;;;;;;;5.83;3.67;;;;;;;;;;5077824;28;20188;-73
2023/01/06 13:07:59;;;;;;;3.57;3.23;;;;;;;;;;5095308;28;20242;-73
2023/01/06 13:10:25;;;;;;;3.83;2.47;;;;;;;;;;5099005;28;20196;-73
2023/01/06 13:12:54;;;;;;;3.80;2.00;;;;;;;;;;5097423;28;20583;-73
2023/01/06 13:15:20;;;;;;;2.33;2.13;;;;;;;;;;5096118;28;20173;-73
2023/01/06 13:17:57;;;;;;;3.50;3.20;;;;;;;;;;5095235;28;20249;-74
2023/01/06 13:20:28;;;;;;;7.27;5.97;;;;;;;;;;5079752;28;20226;-74
2023/01/06 13:23:09;;;;;;;4.20;3.30;;;;;;;;;;5114833;28;20620;-75
2023/01/06 13:25:58;;;;;;;7.47;5.77;;;;;;;;;;5113298;28;20279;-75
2023/01/06 13:28:24;;;;;;;4.27;3.87;;;;;;;;;;5105363;28;20227;-73
2023/01/06 13:31:02;;;;;;;10.67;7.97;;;;;;;;;;5079211;28;20287;-74
2023/01/06 13:33:34;;;;;;;12.33;9.33;;;;;;;;;;5094393;28;20263;-74
2023/01/06 13:36:10;;;;;;;4.50;2.23;;;;;;;;;;5094459;28;20567;-74
2023/01/06 13:38:44;;;;;;;3.23;2.30;;;;;;;;;;5094704;28;20558;-74
2023/01/06 13:41:19;;;;;;;4.33;3.07;;;;;;;;;;5083974;28;20307;-75
2023/01/06 13:43:47;;;;;;;2.53;1.90;;;;;;;;;;5080622;28;20287;-73
2023/01/06 13:46:15;;;;;;;3.33;3.03;;;;;;;;;;5094237;28;20197;-73
2023/01/06 13:48:43;;;;;;;2.63;2.43;;;;;;;;;;5095090;28;20256;-74
2023/01/06 13:51:11;;;;;;;3.17;2.13;;;;;;;;;;5076945;28;20188;-73
2023/01/06 13:53:38;;;;;;;2.43;2.10;;;;;;;;;;5094944;28;20177;-74
2023/01/06 13:56:13;;;;;;;3.83;2.33;;;;;;;;;;5095130;28;20204;-73
2023/01/06 13:58:40;;;;;;;2.33;2.00;;;;;;;;;;5094712;28;20263;-74
2023/01/06 14:01:10;;;;;;;1.93;1.80;;;;;;;;;;5076269;28;20727;-74
2023/01/06 14:03:37;;;;;;;4.50;4.10;;;;;;;;;;5094158;28;20197;-74
2023/01/06 14:06:03;;;;;;;5.37;4.67;;;;;;;;;;5094192;28;20242;-73
2023/01/06 14:08:36;;;;;;;3.57;3.23;;;;;;;;;;5094204;28;20173;-73
2023/01/06 14:11:03;;;;;;;2.20;2.03;;;;;;;;;;5093858;28;20173;-74
2023/01/06 14:13:29;;;;;;;3.47;3.17;;;;;;;;;;5094039;28;20172;-74
2023/01/06 14:15:57;;;;;;;1.90;1.80;;;;;;;;;;5093969;28;20715;-74
2023/01/06 14:18:35;;;;;;;1.90;1.80;;;;;;;;;;5093788;28;20185;-73
2023/01/06 14:21:06;;;;;;;2.00;1.87;;;;;;;;;;5096499;28;20287;-73
2023/01/06 14:23:33;;;;;;;2.00;1.90;;;;;;;;;;5113702;28;20265;-74
2023/01/06 14:25:59;;;;;;;2.03;1.93;;;;;;;;;;5116017;28;20220;-74
2023/01/06 14:28:30;;;;;;;2.10;2.00;;;;;;;;;;5103386;28;20649;-74
2023/01/06 14:31:15;;;;;;;2.17;2.07;;;;;;;;;;5098512;28;20260;-74
2023/01/06 14:33:43;;;;;;;2.23;2.03;;;;;;;;;;5098729;28;20243;-73
2023/01/06 14:36:13;;;;;;;2.80;1.90;;;;;;;;;;5098075;28;20192;-73
2023/01/06 14:38:44;;;;;;;2.40;2.20;;;;;;;;;;5098282;28;20184;-73
2023/01/06 14:41:25;;;;;;;2.90;1.83;;;;;;;;;;5098259;28;20262;-74
2023/01/06 14:44:03;;;;;;;1.90;1.80;;;;;;;;;;5100525;28;20178;-73
2023/01/06 14:46:31;;;;;;;1.90;1.80;;;;;;;;;;5085718;28;20593;-73
2023/01/06 14:48:59;;;;;;;1.93;1.63;;;;;;;;;;5098208;28;20177;-78
2023/01/06 14:51:25;;;;;;;1.80;1.70;;;;;;;;;;5079984;28;20182;-77
2023/01/06 14:53:56;;;;;;;2.70;1.73;;;;;;;;;;5098294;28;20184;-78
2023/01/06 14:56:24;;;;;;;2.20;1.90;;;;;;;;;;5098102;28;20201;-77